sensor_id;sensor_type;location;lat;lon;timestamp;P1;durP1;ratioP1;P2;durP2;ratioP2
85332;SDS011;75747;53.652;10.168;2024-02-26T00:00:28;4.07;;;3.70;;
85332;SDS011;75747;53.652;10.168;2024-02-26T00:02:54;5.97;;;4.07;;
85332;SDS011;75747;53.652;10.168;2024-02-26T00:05:20;7.00;;;5.23;;
85332;SDS011;75747;53.652;10.168;2024-02-26T00:07:45;6.73;;;5.33;;
85332;SDS011;75747;53.652;10.168;2024-02-26T00:10:12;4.47;;;3.67;;
85332;SDS011;75747;53.652;10.168;2024-02-26T00:12:38;5.03;;;3.93;;
85332;SDS011;75747;53.652;10.168;2024-02-26T00:15:07;4.67;;;4.20;;
85332;SDS011;75747;53.652;10.168;2024-02-26T00:17:34;6.00;;;4.30;;
85332;SDS011;75747;53.652;10.168;2024-02-26T00:20:00;5.33;;;3.77;;
85332;SDS011;75747;53.652;10.168;2024-02-26T00:22:29;6.97;;;4.07;;
85332;SDS011;75747;53.652;10.168;2024-02-26T00:24:56;5.63;;;4.50;;
85332;SDS011;75747;53.652;10.168;2024-02-26T00:27:22;4.83;;;4.33;;
85332;SDS011;75747;53.652;10.168;2024-02-26T00:29:47;4.20;;;3.70;;
85332;SDS011;75747;53.652;10.168;2024-02-26T00:32:13;3.57;;;3.13;;
85332;SDS011;75747;53.652;10.168;2024-02-26T00:34:39;6.00;;;4.27;;
85332;SDS011;75747;53.652;10.168;2024-02-26T00:37:05;5.37;;;4.83;;
85332;SDS011;75747;53.652;10.168;2024-02-26T00:39:30;9.47;;;5.10;;
85332;SDS011;75747;53.652;10.168;2024-02-26T00:41:56;6.63;;;4.03;;
85332;SDS011;75747;53.652;10.168;2024-02-26T00:44:22;6.27;;;4.60;;
85332;SDS011;75747;53.652;10.168;2024-02-26T00:46:47;6.07;;;4.80;;
85332;SDS011;75747;53.652;10.168;2024-02-26T00:49:13;4.93;;;4.23;;
85332;SDS011;75747;53.652;10.168;2024-02-26T00:51:39;7.00;;;4.93;;
85332;SDS011;75747;53.652;10.168;2024-02-26T00:54:04;7.97;;;5.27;;
85332;SDS011;75747;53.652;10.168;2024-02-26T00:56:30;12.13;;;6.50;;
85332;SDS011;75747;53.652;10.168;2024-02-26T00:58:56;8.93;;;6.00;;
85332;SDS011;75747;53.652;10.168;2024-02-26T01:01:21;8.13;;;5.33;;
85332;SDS011;75747;53.652;10.168;2024-02-26T01:03:47;6.57;;;4.83;;
85332;SDS011;75747;53.652;10.168;2024-02-26T01:06:12;8.77;;;5.93;;
85332;SDS011;75747;53.652;10.168;2024-02-26T01:08:38;7.63;;;5.90;;
85332;SDS011;75747;53.652;10.168;2024-02-26T01:11:04;7.53;;;5.27;;
85332;SDS011;75747;53.652;10.168;2024-02-26T01:13:30;6.97;;;4.87;;
85332;SDS011;75747;53.652;10.168;2024-02-26T01:15:55;6.57;;;4.40;;
85332;SDS011;75747;53.652;10.168;2024-02-26T01:18:21;6.63;;;5.03;;
85332;SDS011;75747;53.652;10.168;2024-02-26T01:20:47;6.00;;;5.37;;
85332;SDS011;75747;53.652;10.168;2024-02-26T01:23:13;5.23;;;3.77;;
85332;SDS011;75747;53.652;10.168;2024-02-26T01:25:38;4.97;;;4.37;;
85332;SDS011;75747;53.652;10.168;2024-02-26T01:28:04;4.77;;;4.27;;
85332;SDS011;75747;53.652;10.168;2024-02-26T01:30:30;6.27;;;4.90;;
85332;SDS011;75747;53.652;10.168;2024-02-26T01:32:56;5.43;;;4.20;;
85332;SDS011;75747;53.652;10.168;2024-02-26T01:35:22;5.50;;;4.57;;
85332;SDS011;75747;53.652;10.168;2024-02-26T01:37:48;5.77;;;3.97;;
85332;SDS011;75747;53.652;10.168;2024-02-26T01:40:13;7.23;;;4.03;;
85332;SDS011;75747;53.652;10.168;2024-02-26T01:42:44;6.73;;;4.67;;
85332;SDS011;75747;53.652;10.168;2024-02-26T01:45:12;5.17;;;4.30;;
85332;SDS011;75747;53.652;10.168;2024-02-26T01:47:41;4.90;;;4.37;;
85332;SDS011;75747;53.652;10.168;2024-02-26T01:50:07;4.33;;;3.93;;
85332;SDS011;75747;53.652;10.168;2024-02-26T01:52:33;4.47;;;4.00;;
85332;SDS011;75747;53.652;10.168;2024-02-26T01:54:59;5.33;;;3.80;;
85332;SDS011;75747;53.652;10.168;2024-02-26T01:57:27;5.67;;;4.60;;
85332;SDS011;75747;53.652;10.168;2024-02-26T01:59:53;5.43;;;4.20;;
85332;SDS011;75747;53.652;10.168;2024-02-26T02:02:19;7.60;;;5.07;;
85332;SDS011;75747;53.652;10.168;2024-02-26T02:04:45;5.60;;;4.53;;
85332;SDS011;75747;53.652;10.168;2024-02-26T02:07:11;4.20;;;3.80;;
85332;SDS011;75747;53.652;10.168;2024-02-26T02:09:38;6.57;;;4.67;;
85332;SDS011;75747;53.652;10.168;2024-02-26T02:12:04;7.30;;;4.73;;
85332;SDS011;75747;53.652;10.168;2024-02-26T02:14:31;6.43;;;4.50;;
85332;SDS011;75747;53.652;10.168;2024-02-26T02:16:57;5.43;;;4.43;;
85332;SDS011;75747;53.652;10.168;2024-02-26T02:19:22;4.67;;;4.17;;
85332;SDS011;75747;53.652;10.168;2024-02-26T02:21:48;5.57;;;4.37;;
85332;SDS011;75747;53.652;10.168;2024-02-26T02:24:14;6.33;;;3.73;;
85332;SDS011;75747;53.652;10.168;2024-02-26T02:26:39;6.47;;;4.90;;
85332;SDS011;75747;53.652;10.168;2024-02-26T02:29:05;8.47;;;5.23;;
85332;SDS011;75747;53.652;10.168;2024-02-26T02:31:32;6.97;;;5.43;;
85332;SDS011;75747;53.652;10.168;2024-02-26T02:33:58;7.13;;;4.43;;
85332;SDS011;75747;53.652;10.168;2024-02-26T02:36:24;6.47;;;4.80;;
85332;SDS011;75747;53.652;10.168;2024-02-26T02:38:50;6.70;;;4.60;;
85332;SDS011;75747;53.652;10.168;2024-02-26T02:41:16;4.27;;;3.87;;
85332;SDS011;75747;53.652;10.168;2024-02-26T02:43:41;5.37;;;4.60;;
85332;SDS011;75747;53.652;10.168;2024-02-26T02:46:07;6.13;;;4.80;;
85332;SDS011;75747;53.652;10.168;2024-02-26T02:48:33;4.63;;;4.20;;
85332;SDS011;75747;53.652;10.168;2024-02-26T02:50:58;5.87;;;4.47;;
85332;SDS011;75747;53.652;10.168;2024-02-26T02:53:24;6.73;;;4.87;;
85332;SDS011;75747;53.652;10.168;2024-02-26T02:55:50;4.57;;;4.10;;
85332;SDS011;75747;53.652;10.168;2024-02-26T02:58:15;5.40;;;4.50;;
85332;SDS011;75747;53.652;10.168;2024-02-26T03:00:41;4.43;;;4.00;;
85332;SDS011;75747;53.652;10.168;2024-02-26T03:03:07;4.20;;;3.80;;
85332;SDS011;75747;53.652;10.168;2024-02-26T03:05:33;4.83;;;4.03;;
85332;SDS011;75747;53.652;10.168;2024-02-26T03:07:58;4.30;;;3.80;;
85332;SDS011;75747;53.652;10.168;2024-02-26T03:10:24;4.57;;;4.17;;
85332;SDS011;75747;53.652;10.168;2024-02-26T03:12:50;8.10;;;4.73;;
85332;SDS011;75747;53.652;10.168;2024-02-26T03:15:16;5.07;;;4.13;;
85332;SDS011;75747;53.652;10.168;2024-02-26T03:17:41;5.93;;;4.30;;
85332;SDS011;75747;53.652;10.168;2024-02-26T03:20:08;7.07;;;4.17;;
85332;SDS011;75747;53.652;10.168;2024-02-26T03:22:34;6.23;;;4.60;;
85332;SDS011;75747;53.652;10.168;2024-02-26T03:25:00;6.90;;;4.83;;
85332;SDS011;75747;53.652;10.168;2024-02-26T03:27:26;7.03;;;5.20;;
85332;SDS011;75747;53.652;10.168;2024-02-26T03:29:52;7.13;;;5.70;;
85332;SDS011;75747;53.652;10.168;2024-02-26T03:32:18;8.07;;;4.57;;
85332;SDS011;75747;53.652;10.168;2024-02-26T03:34:43;10.30;;;5.60;;
85332;SDS011;75747;53.652;10.168;2024-02-26T03:37:09;7.87;;;5.23;;
85332;SDS011;75747;53.652;10.168;2024-02-26T03:39:36;4.40;;;4.00;;
85332;SDS011;75747;53.652;10.168;2024-02-26T03:42:02;5.77;;;4.80;;
85332;SDS011;75747;53.652;10.168;2024-02-26T03:44:28;6.57;;;4.93;;
85332;SDS011;75747;53.652;10.168;2024-02-26T03:46:54;5.47;;;4.37;;
85332;SDS011;75747;53.652;10.168;2024-02-26T03:49:19;8.07;;;5.37;;
85332;SDS011;75747;53.652;10.168;2024-02-26T03:51:45;7.07;;;4.40;;
85332;SDS011;75747;53.652;10.168;2024-02-26T03:54:11;6.40;;;4.47;;
85332;SDS011;75747;53.652;10.168;2024-02-26T03:56:36;6.60;;;4.90;;
85332;SDS011;75747;53.652;10.168;2024-02-26T03:59:02;4.50;;;4.00;;
85332;SDS011;75747;53.652;10.168;2024-02-26T04:01:27;6.37;;;4.67;;
85332;SDS011;75747;53.652;10.168;2024-02-26T04:03:54;7.27;;;4.77;;
85332;SDS011;75747;53.652;10.168;2024-02-26T04:06:20;6.87;;;5.43;;
85332;SDS011;75747;53.652;10.168;2024-02-26T04:08:46;7.73;;;4.83;;
85332;SDS011;75747;53.652;10.168;2024-02-26T04:11:12;6.63;;;5.13;;
85332;SDS011;75747;53.652;10.168;2024-02-26T04:13:38;7.47;;;5.13;;
85332;SDS011;75747;53.652;10.168;2024-02-26T04:16:04;8.30;;;5.07;;
85332;SDS011;75747;53.652;10.168;2024-02-26T04:18:31;4.90;;;4.43;;
85332;SDS011;75747;53.652;10.168;2024-02-26T04:20:57;5.77;;;4.70;;
85332;SDS011;75747;53.652;10.168;2024-02-26T04:23:23;7.13;;;5.33;;
85332;SDS011;75747;53.652;10.168;2024-02-26T04:25:48;5.73;;;5.00;;
85332;SDS011;75747;53.652;10.168;2024-02-26T04:28:14;5.83;;;4.83;;
85332;SDS011;75747;53.652;10.168;2024-02-26T04:30:40;6.90;;;4.80;;
85332;SDS011;75747;53.652;10.168;2024-02-26T04:33:06;6.67;;;4.60;;
85332;SDS011;75747;53.652;10.168;2024-02-26T04:35:32;5.83;;;4.80;;
85332;SDS011;75747;53.652;10.168;2024-02-26T04:37:57;5.90;;;5.20;;
85332;SDS011;75747;53.652;10.168;2024-02-26T04:40:23;6.80;;;5.63;;
85332;SDS011;75747;53.652;10.168;2024-02-26T04:42:49;6.43;;;5.27;;
85332;SDS011;75747;53.652;10.168;2024-02-26T04:45:15;8.23;;;5.80;;
85332;SDS011;75747;53.652;10.168;2024-02-26T04:47:40;11.63;;;4.57;;
85332;SDS011;75747;53.652;10.168;2024-02-26T04:50:06;6.00;;;4.30;;
85332;SDS011;75747;53.652;10.168;2024-02-26T04:52:32;6.40;;;4.90;;
85332;SDS011;75747;53.652;10.168;2024-02-26T04:54:58;8.53;;;5.43;;
85332;SDS011;75747;53.652;10.168;2024-02-26T04:57:25;7.40;;;5.53;;
85332;SDS011;75747;53.652;10.168;2024-02-26T04:59:51;7.47;;;5.73;;
85332;SDS011;75747;53.652;10.168;2024-02-26T05:02:17;6.73;;;5.30;;
85332;SDS011;75747;53.652;10.168;2024-02-26T05:04:42;6.77;;;4.63;;
85332;SDS011;75747;53.652;10.168;2024-02-26T05:07:08;6.97;;;4.70;;
85332;SDS011;75747;53.652;10.168;2024-02-26T05:09:34;6.67;;;5.13;;
85332;SDS011;75747;53.652;10.168;2024-02-26T05:12:00;7.00;;;5.80;;
85332;SDS011;75747;53.652;10.168;2024-02-26T05:14:25;7.00;;;5.10;;
85332;SDS011;75747;53.652;10.168;2024-02-26T05:16:51;5.07;;;4.57;;
85332;SDS011;75747;53.652;10.168;2024-02-26T05:19:17;7.03;;;5.07;;
85332;SDS011;75747;53.652;10.168;2024-02-26T05:21:42;6.03;;;4.73;;
85332;SDS011;75747;53.652;10.168;2024-02-26T05:24:09;5.50;;;4.77;;
85332;SDS011;75747;53.652;10.168;2024-02-26T05:26:35;6.50;;;5.00;;
85332;SDS011;75747;53.652;10.168;2024-02-26T05:29:01;5.93;;;4.53;;
85332;SDS011;75747;53.652;10.168;2024-02-26T05:31:27;7.63;;;4.53;;
85332;SDS011;75747;53.652;10.168;2024-02-26T05:33:53;4.83;;;4.33;;
85332;SDS011;75747;53.652;10.168;2024-02-26T05:36:22;8.60;;;4.63;;
85332;SDS011;75747;53.652;10.168;2024-02-26T05:38:48;7.50;;;5.17;;
85332;SDS011;75747;53.652;10.168;2024-02-26T05:41:17;5.27;;;4.63;;
85332;SDS011;75747;53.652;10.168;2024-02-26T05:43:51;8.03;;;5.87;;
85332;SDS011;75747;53.652;10.168;2024-02-26T05:46:17;7.10;;;5.30;;
85332;SDS011;75747;53.652;10.168;2024-02-26T05:48:44;8.17;;;5.70;;
85332;SDS011;75747;53.652;10.168;2024-02-26T05:51:12;6.47;;;4.83;;
85332;SDS011;75747;53.652;10.168;2024-02-26T05:53:37;8.13;;;5.93;;
85332;SDS011;75747;53.652;10.168;2024-02-26T05:56:03;8.00;;;5.57;;
85332;SDS011;75747;53.652;10.168;2024-02-26T05:58:29;6.43;;;5.20;;
85332;SDS011;75747;53.652;10.168;2024-02-26T06:00:54;6.13;;;5.40;;
85332;SDS011;75747;53.652;10.168;2024-02-26T06:03:20;5.93;;;4.80;;
85332;SDS011;75747;53.652;10.168;2024-02-26T06:05:46;5.53;;;4.77;;
85332;SDS011;75747;53.652;10.168;2024-02-26T06:08:11;5.63;;;5.10;;
85332;SDS011;75747;53.652;10.168;2024-02-26T06:10:37;7.53;;;5.03;;
85332;SDS011;75747;53.652;10.168;2024-02-26T06:13:04;5.97;;;4.87;;
85332;SDS011;75747;53.652;10.168;2024-02-26T06:15:30;5.80;;;5.20;;
85332;SDS011;75747;53.652;10.168;2024-02-26T06:17:55;5.37;;;4.83;;
85332;SDS011;75747;53.652;10.168;2024-02-26T06:20:21;9.13;;;5.93;;
85332;SDS011;75747;53.652;10.168;2024-02-26T06:22:47;5.27;;;4.43;;
85332;SDS011;75747;53.652;10.168;2024-02-26T06:25:13;5.33;;;4.83;;
85332;SDS011;75747;53.652;10.168;2024-02-26T06:27:38;5.53;;;5.03;;
85332;SDS011;75747;53.652;10.168;2024-02-26T06:30:04;10.57;;;6.30;;
85332;SDS011;75747;53.652;10.168;2024-02-26T06:32:30;4.47;;;4.07;;
85332;SDS011;75747;53.652;10.168;2024-02-26T06:34:56;7.43;;;5.47;;
85332;SDS011;75747;53.652;10.168;2024-02-26T06:37:22;7.60;;;5.43;;
85332;SDS011;75747;53.652;10.168;2024-02-26T06:39:48;8.63;;;5.80;;
85332;SDS011;75747;53.652;10.168;2024-02-26T06:42:13;8.10;;;5.00;;
85332;SDS011;75747;53.652;10.168;2024-02-26T06:44:39;9.43;;;6.00;;
85332;SDS011;75747;53.652;10.168;2024-02-26T06:47:05;8.23;;;6.63;;
85332;SDS011;75747;53.652;10.168;2024-02-26T06:49:30;9.57;;;7.10;;
85332;SDS011;75747;53.652;10.168;2024-02-26T06:51:56;8.30;;;6.73;;
85332;SDS011;75747;53.652;10.168;2024-02-26T06:54:22;8.00;;;5.30;;
85332;SDS011;75747;53.652;10.168;2024-02-26T06:56:47;8.73;;;6.73;;
85332;SDS011;75747;53.652;10.168;2024-02-26T06:59:13;8.13;;;6.00;;
85332;SDS011;75747;53.652;10.168;2024-02-26T07:01:42;7.60;;;5.70;;
85332;SDS011;75747;53.652;10.168;2024-02-26T07:04:08;8.77;;;5.80;;
85332;SDS011;75747;53.652;10.168;2024-02-26T07:06:35;9.70;;;6.70;;
85332;SDS011;75747;53.652;10.168;2024-02-26T07:09:01;9.17;;;6.83;;
85332;SDS011;75747;53.652;10.168;2024-02-26T07:11:27;7.33;;;6.13;;
85332;SDS011;75747;53.652;10.168;2024-02-26T07:13:53;8.00;;;6.13;;
85332;SDS011;75747;53.652;10.168;2024-02-26T07:16:18;10.27;;;6.60;;
85332;SDS011;75747;53.652;10.168;2024-02-26T07:18:44;9.43;;;5.67;;
85332;SDS011;75747;53.652;10.168;2024-02-26T07:21:11;11.73;;;6.70;;
85332;SDS011;75747;53.652;10.168;2024-02-26T07:23:37;9.23;;;6.37;;
85332;SDS011;75747;53.652;10.168;2024-02-26T07:26:03;15.27;;;6.73;;
85332;SDS011;75747;53.652;10.168;2024-02-26T07:28:28;21.43;;;6.73;;
85332;SDS011;75747;53.652;10.168;2024-02-26T07:30:54;9.77;;;6.80;;
85332;SDS011;75747;53.652;10.168;2024-02-26T07:33:20;8.17;;;6.43;;
85332;SDS011;75747;53.652;10.168;2024-02-26T07:35:46;9.27;;;6.47;;
85332;SDS011;75747;53.652;10.168;2024-02-26T07:38:11;9.53;;;6.47;;
85332;SDS011;75747;53.652;10.168;2024-02-26T07:40:38;9.80;;;7.30;;
85332;SDS011;75747;53.652;10.168;2024-02-26T07:43:04;12.47;;;7.10;;
85332;SDS011;75747;53.652;10.168;2024-02-26T07:45:29;7.47;;;5.30;;
85332;SDS011;75747;53.652;10.168;2024-02-26T07:47:55;16.80;;;6.93;;
85332;SDS011;75747;53.652;10.168;2024-02-26T07:50:21;13.30;;;6.73;;
85332;SDS011;75747;53.652;10.168;2024-02-26T07:52:47;10.87;;;8.00;;
85332;SDS011;75747;53.652;10.168;2024-02-26T07:55:12;8.87;;;6.27;;
85332;SDS011;75747;53.652;10.168;2024-02-26T07:57:41;10.10;;;6.73;;
85332;SDS011;75747;53.652;10.168;2024-02-26T08:00:07;20.37;;;7.57;;
85332;SDS011;75747;53.652;10.168;2024-02-26T08:02:34;9.10;;;6.40;;
85332;SDS011;75747;53.652;10.168;2024-02-26T08:05:00;17.13;;;7.90;;
85332;SDS011;75747;53.652;10.168;2024-02-26T08:07:26;18.63;;;7.00;;
85332;SDS011;75747;53.652;10.168;2024-02-26T08:09:53;7.80;;;5.83;;
85332;SDS011;75747;53.652;10.168;2024-02-26T08:12:19;9.40;;;6.77;;
85332;SDS011;75747;53.652;10.168;2024-02-26T08:14:45;9.60;;;6.87;;
85332;SDS011;75747;53.652;10.168;2024-02-26T08:17:10;10.57;;;6.27;;
85332;SDS011;75747;53.652;10.168;2024-02-26T08:19:36;8.00;;;6.00;;
85332;SDS011;75747;53.652;10.168;2024-02-26T08:22:02;10.10;;;6.57;;
85332;SDS011;75747;53.652;10.168;2024-02-26T08:24:28;9.87;;;6.63;;
85332;SDS011;75747;53.652;10.168;2024-02-26T08:26:54;14.07;;;6.40;;
85332;SDS011;75747;53.652;10.168;2024-02-26T08:29:20;15.73;;;7.10;;
85332;SDS011;75747;53.652;10.168;2024-02-26T08:31:45;13.00;;;6.83;;
85332;SDS011;75747;53.652;10.168;2024-02-26T08:34:11;11.27;;;7.00;;
85332;SDS011;75747;53.652;10.168;2024-02-26T08:36:37;10.00;;;7.20;;
85332;SDS011;75747;53.652;10.168;2024-02-26T08:39:03;10.33;;;6.83;;
85332;SDS011;75747;53.652;10.168;2024-02-26T08:41:29;9.73;;;6.70;;
85332;SDS011;75747;53.652;10.168;2024-02-26T08:43:54;9.63;;;6.40;;
85332;SDS011;75747;53.652;10.168;2024-02-26T08:46:20;10.20;;;6.43;;
85332;SDS011;75747;53.652;10.168;2024-02-26T08:48:46;10.93;;;7.13;;
85332;SDS011;75747;53.652;10.168;2024-02-26T08:51:12;9.67;;;6.43;;
85332;SDS011;75747;53.652;10.168;2024-02-26T08:53:38;9.13;;;5.87;;
85332;SDS011;75747;53.652;10.168;2024-02-26T08:56:04;11.80;;;6.97;;
85332;SDS011;75747;53.652;10.168;2024-02-26T08:58:30;12.73;;;7.30;;
85332;SDS011;75747;53.652;10.168;2024-02-26T09:00:56;11.97;;;7.40;;
85332;SDS011;75747;53.652;10.168;2024-02-26T09:03:22;8.27;;;6.43;;
85332;SDS011;75747;53.652;10.168;2024-02-26T09:05:49;12.27;;;7.30;;
85332;SDS011;75747;53.652;10.168;2024-02-26T09:08:15;11.60;;;7.73;;
85332;SDS011;75747;53.652;10.168;2024-02-26T09:10:41;11.33;;;7.87;;
85332;SDS011;75747;53.652;10.168;2024-02-26T09:13:07;14.23;;;8.07;;
85332;SDS011;75747;53.652;10.168;2024-02-26T09:15:33;11.83;;;6.90;;
85332;SDS011;75747;53.652;10.168;2024-02-26T09:17:59;16.73;;;9.50;;
85332;SDS011;75747;53.652;10.168;2024-02-26T09:20:24;16.10;;;9.40;;
85332;SDS011;75747;53.652;10.168;2024-02-26T09:22:50;15.80;;;9.00;;
85332;SDS011;75747;53.652;10.168;2024-02-26T09:25:16;17.47;;;8.13;;
85332;SDS011;75747;53.652;10.168;2024-02-26T09:27:42;13.27;;;7.90;;
85332;SDS011;75747;53.652;10.168;2024-02-26T09:30:12;16.53;;;9.00;;
85332;SDS011;75747;53.652;10.168;2024-02-26T09:32:38;17.33;;;9.23;;
85332;SDS011;75747;53.652;10.168;2024-02-26T09:35:07;14.53;;;8.63;;
85332;SDS011;75747;53.652;10.168;2024-02-26T09:37:33;14.50;;;8.63;;
85332;SDS011;75747;53.652;10.168;2024-02-26T09:39:59;15.37;;;9.23;;
85332;SDS011;75747;53.652;10.168;2024-02-26T09:42:26;15.43;;;9.37;;
85332;SDS011;75747;53.652;10.168;2024-02-26T09:44:55;16.37;;;9.30;;
85332;SDS011;75747;53.652;10.168;2024-02-26T09:47:24;17.03;;;9.00;;
85332;SDS011;75747;53.652;10.168;2024-02-26T09:49:52;17.43;;;9.57;;
85332;SDS011;75747;53.652;10.168;2024-02-26T09:52:20;13.87;;;7.93;;
85332;SDS011;75747;53.652;10.168;2024-02-26T09:54:46;17.13;;;10.17;;
85332;SDS011;75747;53.652;10.168;2024-02-26T09:57:13;14.87;;;9.50;;
85332;SDS011;75747;53.652;10.168;2024-02-26T09:59:42;17.70;;;9.80;;
85332;SDS011;75747;53.652;10.168;2024-02-26T10:02:11;12.30;;;7.33;;
85332;SDS011;75747;53.652;10.168;2024-02-26T10:04:41;16.47;;;9.43;;
85332;SDS011;75747;53.652;10.168;2024-02-26T10:07:11;17.23;;;8.97;;
85332;SDS011;75747;53.652;10.168;2024-02-26T10:09:38;18.37;;;9.87;;
85332;SDS011;75747;53.652;10.168;2024-02-26T10:12:04;13.33;;;7.97;;
85332;SDS011;75747;53.652;10.168;2024-02-26T10:14:32;17.70;;;10.13;;
85332;SDS011;75747;53.652;10.168;2024-02-26T10:16:58;16.50;;;9.20;;
85332;SDS011;75747;53.652;10.168;2024-02-26T10:19:29;16.83;;;9.80;;
85332;SDS011;75747;53.652;10.168;2024-02-26T10:21:59;18.90;;;10.57;;
85332;SDS011;75747;53.652;10.168;2024-02-26T10:24:26;16.13;;;9.60;;
85332;SDS011;75747;53.652;10.168;2024-02-26T10:26:52;20.60;;;9.53;;
85332;SDS011;75747;53.652;10.168;2024-02-26T10:29:20;16.77;;;10.03;;
85332;SDS011;75747;53.652;10.168;2024-02-26T10:31:46;21.00;;;10.63;;
85332;SDS011;75747;53.652;10.168;2024-02-26T10:34:12;14.80;;;9.07;;
85332;SDS011;75747;53.652;10.168;2024-02-26T10:36:39;19.37;;;9.60;;
85332;SDS011;75747;53.652;10.168;2024-02-26T10:39:06;17.73;;;9.53;;
85332;SDS011;75747;53.652;10.168;2024-02-26T10:41:35;14.70;;;8.23;;
85332;SDS011;75747;53.652;10.168;2024-02-26T10:44:01;17.27;;;9.67;;
85332;SDS011;75747;53.652;10.168;2024-02-26T10:46:27;16.03;;;9.17;;
85332;SDS011;75747;53.652;10.168;2024-02-26T10:48:53;14.30;;;8.60;;
85332;SDS011;75747;53.652;10.168;2024-02-26T10:51:29;15.37;;;9.23;;
85332;SDS011;75747;53.652;10.168;2024-02-26T10:53:59;14.27;;;9.20;;
85332;SDS011;75747;53.652;10.168;2024-02-26T10:56:29;14.43;;;7.57;;
85332;SDS011;75747;53.652;10.168;2024-02-26T10:58:58;21.13;;;10.23;;
85332;SDS011;75747;53.652;10.168;2024-02-26T11:01:24;14.83;;;9.10;;
85332;SDS011;75747;53.652;10.168;2024-02-26T11:03:52;14.23;;;9.30;;
85332;SDS011;75747;53.652;10.168;2024-02-26T11:06:19;15.73;;;8.57;;
85332;SDS011;75747;53.652;10.168;2024-02-26T11:08:52;14.23;;;8.57;;
85332;SDS011;75747;53.652;10.168;2024-02-26T11:11:19;15.30;;;8.60;;
85332;SDS011;75747;53.652;10.168;2024-02-26T11:13:46;17.33;;;8.90;;
85332;SDS011;75747;53.652;10.168;2024-02-26T11:16:19;15.30;;;9.33;;
85332;SDS011;75747;53.652;10.168;2024-02-26T11:18:46;15.50;;;8.13;;
85332;SDS011;75747;53.652;10.168;2024-02-26T11:21:16;13.10;;;8.83;;
85332;SDS011;75747;53.652;10.168;2024-02-26T11:23:52;15.80;;;9.77;;
85332;SDS011;75747;53.652;10.168;2024-02-26T11:26:19;13.97;;;9.17;;
85332;SDS011;75747;53.652;10.168;2024-02-26T11:28:47;15.53;;;8.93;;
85332;SDS011;75747;53.652;10.168;2024-02-26T11:31:14;13.70;;;8.27;;
85332;SDS011;75747;53.652;10.168;2024-02-26T11:33:40;14.63;;;8.67;;
85332;SDS011;75747;53.652;10.168;2024-02-26T11:36:09;13.40;;;8.77;;
85332;SDS011;75747;53.652;10.168;2024-02-26T11:38:36;11.83;;;7.63;;
85332;SDS011;75747;53.652;10.168;2024-02-26T11:41:03;12.83;;;7.27;;
85332;SDS011;75747;53.652;10.168;2024-02-26T11:46:24;12.20;;;7.50;;
85332;SDS011;75747;53.652;10.168;2024-02-26T11:48:51;12.30;;;7.30;;
85332;SDS011;75747;53.652;10.168;2024-02-26T11:51:24;12.40;;;7.40;;
85332;SDS011;75747;53.652;10.168;2024-02-26T11:53:51;13.67;;;8.63;;
85332;SDS011;75747;53.652;10.168;2024-02-26T11:58:46;17.03;;;8.33;;
85332;SDS011;75747;53.652;10.168;2024-02-26T12:04:02;11.40;;;7.97;;
85332;SDS011;75747;53.652;10.168;2024-02-26T12:06:39;14.53;;;8.90;;
85332;SDS011;75747;53.652;10.168;2024-02-26T12:09:10;17.90;;;10.47;;
85332;SDS011;75747;53.652;10.168;2024-02-26T12:11:38;13.53;;;8.37;;
85332;SDS011;75747;53.652;10.168;2024-02-26T12:14:05;16.63;;;9.37;;
85332;SDS011;75747;53.652;10.168;2024-02-26T12:16:39;15.23;;;9.23;;
85332;SDS011;75747;53.652;10.168;2024-02-26T12:19:08;16.37;;;9.10;;
85332;SDS011;75747;53.652;10.168;2024-02-26T12:21:35;15.83;;;9.07;;
85332;SDS011;75747;53.652;10.168;2024-02-26T12:24:09;13.67;;;8.93;;
85332;SDS011;75747;53.652;10.168;2024-02-26T12:26:39;14.57;;;8.37;;
85332;SDS011;75747;53.652;10.168;2024-02-26T12:29:06;12.80;;;8.63;;
85332;SDS011;75747;53.652;10.168;2024-02-26T12:31:32;15.67;;;8.57;;
85332;SDS011;75747;53.652;10.168;2024-02-26T12:33:59;13.40;;;8.00;;
85332;SDS011;75747;53.652;10.168;2024-02-26T12:36:26;15.20;;;8.03;;
85332;SDS011;75747;53.652;10.168;2024-02-26T12:38:52;13.90;;;8.27;;
85332;SDS011;75747;53.652;10.168;2024-02-26T12:41:18;16.77;;;8.73;;
85332;SDS011;75747;53.652;10.168;2024-02-26T12:43:43;14.30;;;8.00;;
85332;SDS011;75747;53.652;10.168;2024-02-26T12:46:10;15.27;;;7.43;;
85332;SDS011;75747;53.652;10.168;2024-02-26T12:48:36;12.77;;;7.80;;
85332;SDS011;75747;53.652;10.168;2024-02-26T12:51:01;13.77;;;8.43;;
85332;SDS011;75747;53.652;10.168;2024-02-26T12:53:27;14.50;;;7.87;;
85332;SDS011;75747;53.652;10.168;2024-02-26T12:55:56;14.77;;;8.40;;
85332;SDS011;75747;53.652;10.168;2024-02-26T12:58:22;13.20;;;7.63;;
85332;SDS011;75747;53.652;10.168;2024-02-26T13:00:53;16.20;;;9.53;;
85332;SDS011;75747;53.652;10.168;2024-02-26T13:03:20;11.43;;;7.33;;
85332;SDS011;75747;53.652;10.168;2024-02-26T13:05:47;13.43;;;8.13;;
85332;SDS011;75747;53.652;10.168;2024-02-26T13:08:20;14.90;;;8.33;;
85332;SDS011;75747;53.652;10.168;2024-02-26T13:10:46;12.80;;;7.80;;
85332;SDS011;75747;53.652;10.168;2024-02-26T13:13:14;15.47;;;7.90;;
85332;SDS011;75747;53.652;10.168;2024-02-26T13:15:42;11.60;;;7.57;;
85332;SDS011;75747;53.652;10.168;2024-02-26T13:18:09;15.20;;;8.10;;
85332;SDS011;75747;53.652;10.168;2024-02-26T13:20:35;16.00;;;8.63;;
85332;SDS011;75747;53.652;10.168;2024-02-26T13:23:02;14.47;;;8.67;;
85332;SDS011;75747;53.652;10.168;2024-02-26T13:25:27;15.10;;;9.20;;
85332;SDS011;75747;53.652;10.168;2024-02-26T13:28:05;12.07;;;7.80;;
85332;SDS011;75747;53.652;10.168;2024-02-26T13:30:34;13.70;;;7.90;;
85332;SDS011;75747;53.652;10.168;2024-02-26T13:33:07;13.43;;;8.37;;
85332;SDS011;75747;53.652;10.168;2024-02-26T13:35:37;14.13;;;8.93;;
85332;SDS011;75747;53.652;10.168;2024-02-26T13:38:04;15.00;;;8.50;;
85332;SDS011;75747;53.652;10.168;2024-02-26T13:40:31;16.47;;;8.50;;
85332;SDS011;75747;53.652;10.168;2024-02-26T13:42:57;13.03;;;8.37;;
85332;SDS011;75747;53.652;10.168;2024-02-26T13:45:23;16.00;;;8.80;;
85332;SDS011;75747;53.652;10.168;2024-02-26T13:47:48;13.43;;;7.23;;
85332;SDS011;75747;53.652;10.168;2024-02-26T13:50:14;12.70;;;7.77;;
85332;SDS011;75747;53.652;10.168;2024-02-26T13:52:39;13.90;;;7.97;;
85332;SDS011;75747;53.652;10.168;2024-02-26T13:55:05;14.10;;;7.47;;
85332;SDS011;75747;53.652;10.168;2024-02-26T13:57:32;13.50;;;7.67;;
85332;SDS011;75747;53.652;10.168;2024-02-26T13:59:58;15.83;;;8.87;;
85332;SDS011;75747;53.652;10.168;2024-02-26T14:02:23;15.03;;;8.50;;
85332;SDS011;75747;53.652;10.168;2024-02-26T14:04:49;13.07;;;8.53;;
85332;SDS011;75747;53.652;10.168;2024-02-26T14:07:15;10.57;;;7.73;;
85332;SDS011;75747;53.652;10.168;2024-02-26T14:09:42;13.00;;;8.63;;
85332;SDS011;75747;53.652;10.168;2024-02-26T14:12:08;13.07;;;7.90;;
85332;SDS011;75747;53.652;10.168;2024-02-26T14:14:34;14.20;;;8.40;;
85332;SDS011;75747;53.652;10.168;2024-02-26T14:17:03;15.90;;;7.80;;
85332;SDS011;75747;53.652;10.168;2024-02-26T14:19:29;13.70;;;8.40;;
85332;SDS011;75747;53.652;10.168;2024-02-26T14:21:55;12.70;;;8.60;;
85332;SDS011;75747;53.652;10.168;2024-02-26T14:24:20;15.23;;;7.73;;
85332;SDS011;75747;53.652;10.168;2024-02-26T14:26:46;13.07;;;8.27;;
85332;SDS011;75747;53.652;10.168;2024-02-26T14:29:11;14.93;;;8.20;;
85332;SDS011;75747;53.652;10.168;2024-02-26T14:31:37;14.13;;;8.37;;